sensor_id;sensor_type;location;lat;lon;timestamp;temperature;humidity
7155;DHT22;3619;53.784;10.440;2022-10-17T00:02:24;12.10;99.90
7155;DHT22;3619;53.784;10.440;2022-10-17T00:04:51;12.10;99.90
7155;DHT22;3619;53.784;10.440;2022-10-17T00:07:18;12.00;99.90
7155;DHT22;3619;53.784;10.440;2022-10-17T00:09:45;12.00;99.90
7155;DHT22;3619;53.784;10.440;2022-10-17T00:12:13;12.00;99.90
7155;DHT22;3619;53.784;10.440;2022-10-17T00:14:40;12.00;99.90
7155;DHT22;3619;53.784;10.440;2022-10-17T00:17:06;11.90;99.90
7155;DHT22;3619;53.784;10.440;2022-10-17T00:19:33;11.90;99.90
7155;DHT22;3619;53.784;10.440;2022-10-17T00:22:00;11.90;99.90
7155;DHT22;3619;53.784;10.440;2022-10-17T00:24:29;11.90;99.90
7155;DHT22;3619;53.784;10.440;2022-10-17T00:26:56;11.90;99.90
7155;DHT22;3619;53.784;10.440;2022-10-17T00:29:24;12.00;99.90
7155;DHT22;3619;53.784;10.440;2022-10-17T00:31:53;12.00;99.90
7155;DHT22;3619;53.784;10.440;2022-10-17T00:34:20;12.00;99.90
7155;DHT22;3619;53.784;10.440;2022-10-17T00:36:47;12.00;99.90
7155;DHT22;3619;53.784;10.440;2022-10-17T00:39:14;12.00;99.90
7155;DHT22;3619;53.784;10.440;2022-10-17T00:41:41;11.90;99.90
7155;DHT22;3619;53.784;10.440;2022-10-17T00:47:15;11.90;99.90
7155;DHT22;3619;53.784;10.440;2022-10-17T00:49:43;11.80;99.90
7155;DHT22;3619;53.784;10.440;2022-10-17T00:52:13;11.80;99.90
7155;DHT22;3619;53.784;10.440;2022-10-17T00:54:44;11.80;99.90
7155;DHT22;3619;53.784;10.440;2022-10-17T00:57:12;11.80;99.90
7155;DHT22;3619;53.784;10.440;2022-10-17T00:59:41;11.80;99.90
7155;DHT22;3619;53.784;10.440;2022-10-17T01:02:14;11.70;99.90
7155;DHT22;3619;53.784;10.440;2022-10-17T01:04:44;11.80;99.90
7155;DHT22;3619;53.784;10.440;2022-10-17T01:07:12;11.80;99.90
7155;DHT22;3619;53.784;10.440;2022-10-17T01:09:39;11.70;99.90
7155;DHT22;3619;53.784;10.440;2022-10-17T01:12:17;11.80;99.90
7155;DHT22;3619;53.784;10.440;2022-10-17T01:14:53;11.80;99.90
7155;DHT22;3619;53.784;10.440;2022-10-17T01:17:30;11.90;99.90
7155;DHT22;3619;53.784;10.440;2022-10-17T01:20:27;11.90;99.90
7155;DHT22;3619;53.784;10.440;2022-10-17T01:23:09;11.80;99.90
7155;DHT22;3619;53.784;10.440;2022-10-17T01:25:46;11.70;99.90
7155;DHT22;3619;53.784;10.440;2022-10-17T01:28:40;11.60;99.90
7155;DHT22;3619;53.784;10.440;2022-10-17T01:31:15;11.60;99.90
7155;DHT22;3619;53.784;10.440;2022-10-17T01:33:46;11.60;99.90
7155;DHT22;3619;53.784;10.440;2022-10-17T01:36:23;11.60;99.90
7155;DHT22;3619;53.784;10.440;2022-10-17T01:38:54;11.60;99.90
7155;DHT22;3619;53.784;10.440;2022-10-17T01:41:28;11.60;99.90
7155;DHT22;3619;53.784;10.440;2022-10-17T01:44:04;11.60;99.90
7155;DHT22;3619;53.784;10.440;2022-10-17T01:46:36;11.60;99.90
7155;DHT22;3619;53.784;10.440;2022-10-17T01:49:04;11.70;99.90
7155;DHT22;3619;53.784;10.440;2022-10-17T01:51:35;11.70;99.90
7155;DHT22;3619;53.784;10.440;2022-10-17T01:54:08;11.70;99.90
7155;DHT22;3619;53.784;10.440;2022-10-17T01:56:38;11.70;99.90
7155;DHT22;3619;53.784;10.440;2022-10-17T01:59:10;11.70;99.90
7155;DHT22;3619;53.784;10.440;2022-10-17T02:01:41;11.70;99.90
7155;DHT22;3619;53.784;10.440;2022-10-17T02:04:11;11.70;99.90
7155;DHT22;3619;53.784;10.440;2022-10-17T02:06:38;11.70;99.90
7155;DHT22;3619;53.784;10.440;2022-10-17T02:09:19;11.60;99.90
7155;DHT22;3619;53.784;10.440;2022-10-17T02:11:56;11.70;99.90
7155;DHT22;3619;53.784;10.440;2022-10-17T02:14:34;11.70;99.90
7155;DHT22;3619;53.784;10.440;2022-10-17T02:17:12;11.60;99.90
7155;DHT22;3619;53.784;10.440;2022-10-17T02:19:49;11.70;99.90
7155;DHT22;3619;53.784;10.440;2022-10-17T02:22:29;11.70;99.90
7155;DHT22;3619;53.784;10.440;2022-10-17T02:25:02;11.70;99.90
7155;DHT22;3619;53.784;10.440;2022-10-17T02:27:35;11.70;99.90
7155;DHT22;3619;53.784;10.440;2022-10-17T02:30:09;11.70;99.90
7155;DHT22;3619;53.784;10.440;2022-10-17T02:32:45;11.70;99.90
7155;DHT22;3619;53.784;10.440;2022-10-17T02:35:17;11.70;99.90
7155;DHT22;3619;53.784;10.440;2022-10-17T02:37:46;11.60;99.90
7155;DHT22;3619;53.784;10.440;2022-10-17T02:40:14;11.60;99.90
7155;DHT22;3619;53.784;10.440;2022-10-17T02:42:44;11.60;99.90
7155;DHT22;3619;53.784;10.440;2022-10-17T02:45:12;11.60;99.90
7155;DHT22;3619;53.784;10.440;2022-10-17T02:47:49;11.60;99.90
7155;DHT22;3619;53.784;10.440;2022-10-17T02:50:23;11.60;99.90
7155;DHT22;3619;53.784;10.440;2022-10-17T02:52:57;11.60;99.90
7155;DHT22;3619;53.784;10.440;2022-10-17T02:55:29;11.60;99.90
7155;DHT22;3619;53.784;10.440;2022-10-17T02:58:01;11.60;99.90
7155;DHT22;3619;53.784;10.440;2022-10-17T03:00:31;11.60;99.90
7155;DHT22;3619;53.784;10.440;2022-10-17T03:03:00;11.60;99.90
7155;DHT22;3619;53.784;10.440;2022-10-17T03:05:28;11.60;99.90
7155;DHT22;3619;53.784;10.440;2022-10-17T03:07:55;11.70;99.90
7155;DHT22;3619;53.784;10.440;2022-10-17T03:10:22;11.70;99.90
7155;DHT22;3619;53.784;10.440;2022-10-17T03:12:49;11.70;99.90
7155;DHT22;3619;53.784;10.440;2022-10-17T03:15:15;11.70;99.90
7155;DHT22;3619;53.784;10.440;2022-10-17T03:17:42;11.80;99.90
7155;DHT22;3619;53.784;10.440;2022-10-17T03:20:11;11.80;99.90
7155;DHT22;3619;53.784;10.440;2022-10-17T03:22:40;11.90;99.90
7155;DHT22;3619;53.784;10.440;2022-10-17T03:25:07;12.00;99.90
7155;DHT22;3619;53.784;10.440;2022-10-17T03:27:34;12.00;99.90
7155;DHT22;3619;53.784;10.440;2022-10-17T03:30:01;12.10;99.90
7155;DHT22;3619;53.784;10.440;2022-10-17T03:32:27;12.20;99.90
7155;DHT22;3619;53.784;10.440;2022-10-17T03:34:54;12.20;99.90
7155;DHT22;3619;53.784;10.440;2022-10-17T03:37:24;12.20;99.90
7155;DHT22;3619;53.784;10.440;2022-10-17T03:39:51;12.30;99.90
7155;DHT22;3619;53.784;10.440;2022-10-17T03:42:18;12.30;99.90
7155;DHT22;3619;53.784;10.440;2022-10-17T03:44:45;12.20;99.90
7155;DHT22;3619;53.784;10.440;2022-10-17T03:47:12;12.20;99.90
7155;DHT22;3619;53.784;10.440;2022-10-17T03:49:39;12.20;99.90
7155;DHT22;3619;53.784;10.440;2022-10-17T03:52:09;12.20;99.90
7155;DHT22;3619;53.784;10.440;2022-10-17T03:54:37;12.20;99.90
7155;DHT22;3619;53.784;10.440;2022-10-17T03:57:04;12.30;99.90
7155;DHT22;3619;53.784;10.440;2022-10-17T03:59:32;12.30;99.90
7155;DHT22;3619;53.784;10.440;2022-10-17T04:01:59;12.30;99.90
7155;DHT22;3619;53.784;10.440;2022-10-17T04:04:26;12.30;99.90
7155;DHT22;3619;53.784;10.440;2022-10-17T04:06:53;12.40;99.90
7155;DHT22;3619;53.784;10.440;2022-10-17T04:09:20;12.40;99.90
7155;DHT22;3619;53.784;10.440;2022-10-17T04:11:48;12.30;99.90
7155;DHT22;3619;53.784;10.440;2022-10-17T04:14:15;12.30;99.90
7155;DHT22;3619;53.784;10.440;2022-10-17T04:16:42;12.40;99.90
7155;DHT22;3619;53.784;10.440;2022-10-17T04:19:11;12.30;99.90
7155;DHT22;3619;53.784;10.440;2022-10-17T04:21:38;12.40;99.90
7155;DHT22;3619;53.784;10.440;2022-10-17T04:24:05;12.40;99.90
7155;DHT22;3619;53.784;10.440;2022-10-17T04:26:32;12.40;99.90
7155;DHT22;3619;53.784;10.440;2022-10-17T04:29:00;12.40;99.90
7155;DHT22;3619;53.784;10.440;2022-10-17T04:31:27;12.30;99.90
7155;DHT22;3619;53.784;10.440;2022-10-17T04:33:54;12.30;99.90
7155;DHT22;3619;53.784;10.440;2022-10-17T04:36:21;12.30;99.90
7155;DHT22;3619;53.784;10.440;2022-10-17T04:38:48;12.30;99.90
7155;DHT22;3619;53.784;10.440;2022-10-17T04:41:16;12.30;99.90
7155;DHT22;3619;53.784;10.440;2022-10-17T04:43:45;12.30;99.90
7155;DHT22;3619;53.784;10.440;2022-10-17T04:46:14;12.30;99.90
7155;DHT22;3619;53.784;10.440;2022-10-17T04:48:41;12.30;99.90
7155;DHT22;3619;53.784;10.440;2022-10-17T04:51:11;12.30;99.90
7155;DHT22;3619;53.784;10.440;2022-10-17T04:53:39;12.30;99.90
7155;DHT22;3619;53.784;10.440;2022-10-17T04:56:07;12.20;99.90
7155;DHT22;3619;53.784;10.440;2022-10-17T04:58:35;12.30;99.90
7155;DHT22;3619;53.784;10.440;2022-10-17T05:01:04;12.30;99.90
7155;DHT22;3619;53.784;10.440;2022-10-17T05:03:33;12.30;99.90
7155;DHT22;3619;53.784;10.440;2022-10-17T05:06:03;12.30;99.90
7155;DHT22;3619;53.784;10.440;2022-10-17T05:08:30;12.30;99.90
7155;DHT22;3619;53.784;10.440;2022-10-17T05:10:58;12.30;99.90
7155;DHT22;3619;53.784;10.440;2022-10-17T05:13:25;12.30;99.90
7155;DHT22;3619;53.784;10.440;2022-10-17T05:15:51;12.30;99.90
7155;DHT22;3619;53.784;10.440;2022-10-17T05:18:18;12.30;99.90
7155;DHT22;3619;53.784;10.440;2022-10-17T05:20:48;12.30;99.90
7155;DHT22;3619;53.784;10.440;2022-10-17T05:23:15;12.30;99.90
7155;DHT22;3619;53.784;10.440;2022-10-17T05:25:41;12.30;99.90
7155;DHT22;3619;53.784;10.440;2022-10-17T05:28:08;12.30;99.90
7155;DHT22;3619;53.784;10.440;2022-10-17T05:30:35;12.30;99.90
7155;DHT22;3619;53.784;10.440;2022-10-17T05:33:02;12.30;99.90
7155;DHT22;3619;53.784;10.440;2022-10-17T05:35:29;12.30;99.90
7155;DHT22;3619;53.784;10.440;2022-10-17T05:37:57;12.30;99.90
7155;DHT22;3619;53.784;10.440;2022-10-17T05:40:25;12.20;99.90
7155;DHT22;3619;53.784;10.440;2022-10-17T05:42:51;12.20;99.90
7155;DHT22;3619;53.784;10.440;2022-10-17T05:45:18;12.30;99.90
7155;DHT22;3619;53.784;10.440;2022-10-17T05:47:45;12.20;99.90
7155;DHT22;3619;53.784;10.440;2022-10-17T05:50:12;12.20;99.90
7155;DHT22;3619;53.784;10.440;2022-10-17T05:52:39;12.20;99.90
7155;DHT22;3619;53.784;10.440;2022-10-17T05:55:10;12.20;99.90
7155;DHT22;3619;53.784;10.440;2022-10-17T05:57:39;12.30;99.90
7155;DHT22;3619;53.784;10.440;2022-10-17T06:00:09;12.20;99.90
7155;DHT22;3619;53.784;10.440;2022-10-17T06:02:37;12.20;99.90
7155;DHT22;3619;53.784;10.440;2022-10-17T06:05:04;12.20;99.90
7155;DHT22;3619;53.784;10.440;2022-10-17T06:07:31;12.20;99.90
7155;DHT22;3619;53.784;10.440;2022-10-17T06:09:58;12.20;99.90
7155;DHT22;3619;53.784;10.440;2022-10-17T06:12:27;12.20;99.90
7155;DHT22;3619;53.784;10.440;2022-10-17T06:14:53;12.20;99.90
7155;DHT22;3619;53.784;10.440;2022-10-17T06:17:20;12.20;99.90
7155;DHT22;3619;53.784;10.440;2022-10-17T06:19:47;12.30;99.90
7155;DHT22;3619;53.784;10.440;2022-10-17T06:22:14;12.30;99.90
7155;DHT22;3619;53.784;10.440;2022-10-17T06:24:41;12.30;99.90
7155;DHT22;3619;53.784;10.440;2022-10-17T06:27:10;12.40;99.90
7155;DHT22;3619;53.784;10.440;2022-10-17T06:29:38;12.40;99.90
7155;DHT22;3619;53.784;10.440;2022-10-17T06:32:05;12.40;99.90
7155;DHT22;3619;53.784;10.440;2022-10-17T06:34:32;12.50;99.90
7155;DHT22;3619;53.784;10.440;2022-10-17T06:36:59;12.50;99.90
7155;DHT22;3619;53.784;10.440;2022-10-17T06:39:26;12.50;99.90
7155;DHT22;3619;53.784;10.440;2022-10-17T06:41:58;12.60;99.90
7155;DHT22;3619;53.784;10.440;2022-10-17T06:44:25;12.70;99.90
7155;DHT22;3619;53.784;10.440;2022-10-17T06:46:56;12.70;99.90
7155;DHT22;3619;53.784;10.440;2022-10-17T06:49:23;12.80;99.90
7155;DHT22;3619;53.784;10.440;2022-10-17T06:51:50;12.80;99.90
7155;DHT22;3619;53.784;10.440;2022-10-17T06:54:17;12.90;99.90
7155;DHT22;3619;53.784;10.440;2022-10-17T06:56:44;12.90;99.90
7155;DHT22;3619;53.784;10.440;2022-10-17T06:59:11;13.00;99.90
7155;DHT22;3619;53.784;10.440;2022-10-17T07:01:40;13.00;99.90
7155;DHT22;3619;53.784;10.440;2022-10-17T07:04:08;13.10;99.90
7155;DHT22;3619;53.784;10.440;2022-10-17T07:06:35;13.10;99.90
7155;DHT22;3619;53.784;10.440;2022-10-17T07:09:02;13.10;99.90
7155;DHT22;3619;53.784;10.440;2022-10-17T07:11:32;13.20;99.90
7155;DHT22;3619;53.784;10.440;2022-10-17T07:13:59;13.20;99.90
7155;DHT22;3619;53.784;10.440;2022-10-17T07:16:27;13.30;99.90
7155;DHT22;3619;53.784;10.440;2022-10-17T07:18:54;13.40;99.90
7155;DHT22;3619;53.784;10.440;2022-10-17T07:21:22;13.40;99.90
7155;DHT22;3619;53.784;10.440;2022-10-17T07:23:50;13.50;99.90
7155;DHT22;3619;53.784;10.440;2022-10-17T07:26:18;13.60;99.90
7155;DHT22;3619;53.784;10.440;2022-10-17T07:28:46;13.70;99.90
7155;DHT22;3619;53.784;10.440;2022-10-17T07:31:17;13.80;99.90
7155;DHT22;3619;53.784;10.440;2022-10-17T07:33:45;13.90;99.90
7155;DHT22;3619;53.784;10.440;2022-10-17T07:36:14;14.00;99.90
7155;DHT22;3619;53.784;10.440;2022-10-17T07:38:42;14.10;99.90
7155;DHT22;3619;53.784;10.440;2022-10-17T07:41:10;14.30;99.90
7155;DHT22;3619;53.784;10.440;2022-10-17T07:43:37;14.40;99.90
7155;DHT22;3619;53.784;10.440;2022-10-17T07:46:06;14.50;99.90
7155;DHT22;3619;53.784;10.440;2022-10-17T07:48:33;14.60;99.90
7155;DHT22;3619;53.784;10.440;2022-10-17T07:51:02;14.70;99.90
7155;DHT22;3619;53.784;10.440;2022-10-17T07:53:29;14.90;99.90
7155;DHT22;3619;53.784;10.440;2022-10-17T07:55:57;15.00;99.90
7155;DHT22;3619;53.784;10.440;2022-10-17T07:58:25;15.20;99.90
7155;DHT22;3619;53.784;10.440;2022-10-17T08:00:53;15.40;99.90
7155;DHT22;3619;53.784;10.440;2022-10-17T08:03:20;15.50;99.90
7155;DHT22;3619;53.784;10.440;2022-10-17T08:05:46;15.60;99.90
7155;DHT22;3619;53.784;10.440;2022-10-17T08:08:14;15.50;99.90
7155;DHT22;3619;53.784;10.440;2022-10-17T08:10:40;15.50;99.90
7155;DHT22;3619;53.784;10.440;2022-10-17T08:13:09;15.60;99.90
7155;DHT22;3619;53.784;10.440;2022-10-17T08:15:36;15.70;99.90
7155;DHT22;3619;53.784;10.440;2022-10-17T08:18:04;15.90;99.90
7155;DHT22;3619;53.784;10.440;2022-10-17T08:20:31;16.10;99.90
7155;DHT22;3619;53.784;10.440;2022-10-17T08:22:58;16.30;99.90
7155;DHT22;3619;53.784;10.440;2022-10-17T08:25:30;16.50;99.90
7155;DHT22;3619;53.784;10.440;2022-10-17T08:27:57;16.70;99.90
7155;DHT22;3619;53.784;10.440;2022-10-17T08:30:25;16.60;99.90
7155;DHT22;3619;53.784;10.440;2022-10-17T08:32:55;16.60;99.90
7155;DHT22;3619;53.784;10.440;2022-10-17T08:35:22;16.60;99.90
7155;DHT22;3619;53.784;10.440;2022-10-17T08:37:49;16.50;99.90
7155;DHT22;3619;53.784;10.440;2022-10-17T08:40:20;16.50;99.90
7155;DHT22;3619;53.784;10.440;2022-10-17T08:43:14;16.40;99.90
7155;DHT22;3619;53.784;10.440;2022-10-17T08:45:50;16.50;99.90
7155;DHT22;3619;53.784;10.440;2022-10-17T08:48:19;16.50;99.90
7155;DHT22;3619;53.784;10.440;2022-10-17T08:50:50;16.50;99.90
7155;DHT22;3619;53.784;10.440;2022-10-17T08:53:20;16.60;99.90
7155;DHT22;3619;53.784;10.440;2022-10-17T08:55:50;16.80;99.90
7155;DHT22;3619;53.784;10.440;2022-10-17T08:58:19;16.90;99.90
7155;DHT22;3619;53.784;10.440;2022-10-17T09:00:56;17.00;99.90
7155;DHT22;3619;53.784;10.440;2022-10-17T09:03:41;17.10;99.90
7155;DHT22;3619;53.784;10.440;2022-10-17T09:06:17;17.20;99.90
7155;DHT22;3619;53.784;10.440;2022-10-17T09:08:54;17.20;99.90
7155;DHT22;3619;53.784;10.440;2022-10-17T09:11:36;17.20;99.90
7155;DHT22;3619;53.784;10.440;2022-10-17T09:14:18;17.20;99.90
7155;DHT22;3619;53.784;10.440;2022-10-17T09:17:02;17.20;99.90
7155;DHT22;3619;53.784;10.440;2022-10-17T09:19:37;17.30;99.90
7155;DHT22;3619;53.784;10.440;2022-10-17T09:22:09;17.30;99.90
7155;DHT22;3619;53.784;10.440;2022-10-17T09:24:41;17.50;99.90
7155;DHT22;3619;53.784;10.440;2022-10-17T09:27:21;17.60;99.90
7155;DHT22;3619;53.784;10.440;2022-10-17T09:29:57;17.70;99.90
7155;DHT22;3619;53.784;10.440;2022-10-17T09:32:29;17.70;99.90
7155;DHT22;3619;53.784;10.440;2022-10-17T09:34:55;17.80;99.90
7155;DHT22;3619;53.784;10.440;2022-10-17T09:37:29;17.80;99.90
7155;DHT22;3619;53.784;10.440;2022-10-17T09:39:56;17.90;99.90
7155;DHT22;3619;53.784;10.440;2022-10-17T09:42:29;17.90;99.90
7155;DHT22;3619;53.784;10.440;2022-10-17T09:45:03;18.00;99.90
7155;DHT22;3619;53.784;10.440;2022-10-17T09:47:36;18.10;99.90
7155;DHT22;3619;53.784;10.440;2022-10-17T09:50:15;18.20;99.90
7155;DHT22;3619;53.784;10.440;2022-10-17T09:52:46;18.30;99.90
7155;DHT22;3619;53.784;10.440;2022-10-17T09:55:17;18.50;99.90
7155;DHT22;3619;53.784;10.440;2022-10-17T09:57:56;18.50;99.90
7155;DHT22;3619;53.784;10.440;2022-10-17T10:00:26;18.70;99.90
7155;DHT22;3619;53.784;10.440;2022-10-17T10:03:12;18.80;99.90
7155;DHT22;3619;53.784;10.440;2022-10-17T10:05:59;19.00;99.90
7155;DHT22;3619;53.784;10.440;2022-10-17T10:08:29;19.10;99.90
7155;DHT22;3619;53.784;10.440;2022-10-17T10:10:57;19.10;99.90
7155;DHT22;3619;53.784;10.440;2022-10-17T10:13:29;19.10;99.90
7155;DHT22;3619;53.784;10.440;2022-10-17T10:16:13;19.20;99.90
7155;DHT22;3619;53.784;10.440;2022-10-17T10:18:42;19.30;99.90
7155;DHT22;3619;53.784;10.440;2022-10-17T10:21:12;19.40;99.90
7155;DHT22;3619;53.784;10.440;2022-10-17T10:23:41;19.40;99.90
7155;DHT22;3619;53.784;10.440;2022-10-17T10:26:19;19.40;99.90
7155;DHT22;3619;53.784;10.440;2022-10-17T10:28:52;19.40;99.90
7155;DHT22;3619;53.784;10.440;2022-10-17T10:31:26;19.40;99.90
7155;DHT22;3619;53.784;10.440;2022-10-17T10:33:55;19.50;99.90
7155;DHT22;3619;53.784;10.440;2022-10-17T10:36:22;19.40;99.90
7155;DHT22;3619;53.784;10.440;2022-10-17T10:38:54;19.50;99.90
7155;DHT22;3619;53.784;10.440;2022-10-17T10:41:22;19.50;99.90
7155;DHT22;3619;53.784;10.440;2022-10-17T10:43:53;19.40;99.90
7155;DHT22;3619;53.784;10.440;2022-10-17T10:46:23;19.40;99.90
7155;DHT22;3619;53.784;10.440;2022-10-17T10:48:56;19.50;99.90
7155;DHT22;3619;53.784;10.440;2022-10-17T10:51:29;19.40;99.90
7155;DHT22;3619;53.784;10.440;2022-10-17T10:54:01;19.50;99.90
7155;DHT22;3619;53.784;10.440;2022-10-17T10:56:33;19.50;99.90
7155;DHT22;3619;53.784;10.440;2022-10-17T10:59:08;19.60;99.90
7155;DHT22;3619;53.784;10.440;2022-10-17T11:01:41;19.70;99.90
7155;DHT22;3619;53.784;10.440;2022-10-17T11:04:20;19.80;99.90
7155;DHT22;3619;53.784;10.440;2022-10-17T11:06:52;19.90;99.90
7155;DHT22;3619;53.784;10.440;2022-10-17T11:09:35;20.00;99.90
7155;DHT22;3619;53.784;10.440;2022-10-17T11:12:10;20.00;99.90
7155;DHT22;3619;53.784;10.440;2022-10-17T11:14:43;19.90;99.90
7155;DHT22;3619;53.784;10.440;2022-10-17T11:17:17;19.80;99.90
7155;DHT22;3619;53.784;10.440;2022-10-17T11:19:55;19.80;99.90
7155;DHT22;3619;53.784;10.440;2022-10-17T11:22:28;19.70;99.90
7155;DHT22;3619;53.784;10.440;2022-10-17T11:24:59;19.70;99.90
7155;DHT22;3619;53.784;10.440;2022-10-17T11:27:28;19.70;99.90
7155;DHT22;3619;53.784;10.440;2022-10-17T11:29:56;19.60;99.90
7155;DHT22;3619;53.784;10.440;2022-10-17T11:32:27;19.60;99.90
7155;DHT22;3619;53.784;10.440;2022-10-17T11:35:03;19.50;99.90
7155;DHT22;3619;53.784;10.440;2022-10-17T11:37:34;19.50;99.90
7155;DHT22;3619;53.784;10.440;2022-10-17T11:40:06;19.50;99.90
7155;DHT22;3619;53.784;10.440;2022-10-17T11:42:41;19.40;99.90
7155;DHT22;3619;53.784;10.440;2022-10-17T11:45:13;19.50;99.90
7155;DHT22;3619;53.784;10.440;2022-10-17T11:47:44;19.50;99.90
7155;DHT22;3619;53.784;10.440;2022-10-17T11:50:21;19.50;99.90
7155;DHT22;3619;53.784;10.440;2022-10-17T11:52:51;19.50;99.90
7155;DHT22;3619;53.784;10.440;2022-10-17T11:55:22;19.60;99.90
7155;DHT22;3619;53.784;10.440;2022-10-17T11:57:59;19.60;99.90
7155;DHT22;3619;53.784;10.440;2022-10-17T12:00:41;19.70;99.90
7155;DHT22;3619;53.784;10.440;2022-10-17T12:03:20;19.70;99.90
7155;DHT22;3619;53.784;10.440;2022-10-17T12:05:54;19.80;99.90
7155;DHT22;3619;53.784;10.440;2022-10-17T12:08:27;19.90;99.90
7155;DHT22;3619;53.784;10.440;2022-10-17T12:10:58;19.90;99.90
7155;DHT22;3619;53.784;10.440;2022-10-17T12:13:45;19.90;99.90
7155;DHT22;3619;53.784;10.440;2022-10-17T12:19:24;19.80;99.90
7155;DHT22;3619;53.784;10.440;2022-10-17T12:21:56;19.70;99.90
7155;DHT22;3619;53.784;10.440;2022-10-17T12:24:33;19.70;99.90
7155;DHT22;3619;53.784;10.440;2022-10-17T12:30:16;19.50;99.90
7155;DHT22;3619;53.784;10.440;2022-10-17T12:32:55;19.40;99.90
7155;DHT22;3619;53.784;10.440;2022-10-17T12:35:24;19.40;99.90
7155;DHT22;3619;53.784;10.440;2022-10-17T12:38:25;19.30;99.90
7155;DHT22;3619;53.784;10.440;2022-10-17T12:41:04;19.20;99.90
7155;DHT22;3619;53.784;10.440;2022-10-17T12:43:48;19.20;99.90
7155;DHT22;3619;53.784;10.440;2022-10-17T12:49:36;19.20;99.90
7155;DHT22;3619;53.784;10.440;2022-10-17T12:55:12;19.00;99.90
7155;DHT22;3619;53.784;10.440;2022-10-17T12:57:45;19.10;99.90
7155;DHT22;3619;53.784;10.440;2022-10-17T13:00:18;19.00;99.90
7155;DHT22;3619;53.784;10.440;2022-10-17T13:02:46;19.00;99.90
7155;DHT22;3619;53.784;10.440;2022-10-17T13:05:16;19.00;99.90
7155;DHT22;3619;53.784;10.440;2022-10-17T13:07:46;19.00;99.90
7155;DHT22;3619;53.784;10.440;2022-10-17T13:10:24;19.00;99.90
7155;DHT22;3619;53.784;10.440;2022-10-17T13:12:56;19.00;99.90
7155;DHT22;3619;53.784;10.440;2022-10-17T13:15:25;19.00;99.90
7155;DHT22;3619;53.784;10.440;2022-10-17T13:17:57;18.90;99.90
7155;DHT22;3619;53.784;10.440;2022-10-17T13:20:26;18.90;99.90
7155;DHT22;3619;53.784;10.440;2022-10-17T13:22:54;18.80;99.90
7155;DHT22;3619;53.784;10.440;2022-10-17T13:25:24;18.80;99.90
7155;DHT22;3619;53.784;10.440;2022-10-17T13:28:03;18.80;99.90
7155;DHT22;3619;53.784;10.440;2022-10-17T13:30:32;18.80;99.90
7155;DHT22;3619;53.784;10.440;2022-10-17T13:32:59;18.70;99.90
7155;DHT22;3619;53.784;10.440;2022-10-17T13:35:28;18.70;99.90
7155;DHT22;3619;53.784;10.440;2022-10-17T13:37:56;18.70;99.90
7155;DHT22;3619;53.784;10.440;2022-10-17T13:40:27;18.70;99.90
7155;DHT22;3619;53.784;10.440;2022-10-17T13:42:56;18.60;99.90
7155;DHT22;3619;53.784;10.440;2022-10-17T13:45:28;18.50;99.90
7155;DHT22;3619;53.784;10.440;2022-10-17T13:47:56;18.30;99.90
7155;DHT22;3619;53.784;10.440;2022-10-17T13:50:31;18.20;99.90
7155;DHT22;3619;53.784;10.440;2022-10-17T13:53:16;18.10;99.90
7155;DHT22;3619;53.784;10.440;2022-10-17T13:55:56;18.10;99.90
7155;DHT22;3619;53.784;10.440;2022-10-17T13:58:24;18.00;99.90
7155;DHT22;3619;53.784;10.440;2022-10-17T14:00:52;17.90;99.90
7155;DHT22;3619;53.784;10.440;2022-10-17T14:03:19;17.90;99.90
7155;DHT22;3619;53.784;10.440;2022-10-17T14:06:10;17.80;99.90
7155;DHT22;3619;53.784;10.440;2022-10-17T14:08:44;17.80;99.90
7155;DHT22;3619;53.784;10.440;2022-10-17T14:11:20;17.70;99.90
7155;DHT22;3619;53.784;10.440;2022-10-17T14:13:48;17.70;99.90
7155;DHT22;3619;53.784;10.440;2022-10-17T14:16:16;17.70;99.90
7155;DHT22;3619;53.784;10.440;2022-10-17T14:18:47;17.60;99.90
7155;DHT22;3619;53.784;10.440;2022-10-17T14:21:20;17.60;99.90
7155;DHT22;3619;53.784;10.440;2022-10-17T14:23:48;17.50;99.90
7155;DHT22;3619;53.784;10.440;2022-10-17T14:26:18;17.50;99.90
7155;DHT22;3619;53.784;10.440;2022-10-17T14:28:47;17.50;99.90
7155;DHT22;3619;53.784;10.440;2022-10-17T14:31:41;17.50;99.90
7155;DHT22;3619;53.784;10.440;2022-10-17T14:34:20;17.40;99.90
7155;DHT22;3619;53.784;10.440;2022-10-17T14:36:51;17.40;99.90
7155;DHT22;3619;53.784;10.440;2022-10-17T14:39:21;17.40;99.90
7155;DHT22;3619;53.784;10.440;2022-10-17T14:41:50;17.40;99.90
7155;DHT22;3619;53.784;10.440;2022-10-17T14:44:21;17.40;99.90
7155;DHT22;3619;53.784;10.440;2022-10-17T14:46:53;17.40;99.90
7155;DHT22;3619;53.784;10.440;2022-10-17T14:49:33;17.40;99.90
7155;DHT22;3619;53.784;10.440;2022-10-17T14:52:25;17.40;99.90
7155;DHT22;3619;53.784;10.440;2022-10-17T14:54:52;17.40;99.90
7155;DHT22;3619;53.784;10.440;2022-10-17T14:57:25;17.40;99.90
7155;DHT22;3619;53.784;10.440;2022-10-17T14:59:52;17.40;99.90
7155;DHT22;3619;53.784;10.440;2022-10-17T15:02:20;17.40;99.90
7155;DHT22;3619;53.784;10.440;2022-10-17T15:04:50;17.40;99.90
7155;DHT22;3619;53.784;10.440;2022-10-17T15:07:17;17.40;99.90
7155;DHT22;3619;53.784;10.440;2022-10-17T15:09:49;17.40;99.90
7155;DHT22;3619;53.784;10.440;2022-10-17T15:12:17;17.40;99.90
7155;DHT22;3619;53.784;10.440;2022-10-17T15:14:46;17.40;99.90
7155;DHT22;3619;53.784;10.440;2022-10-17T15:17:15;17.40;99.90
7155;DHT22;3619;53.784;10.440;2022-10-17T15:19:43;17.30;99.90
7155;DHT22;3619;53.784;10.440;2022-10-17T15:22:10;17.30;99.90
7155;DHT22;3619;53.784;10.440;2022-10-17T15:24:37;17.30;99.90
7155;DHT22;3619;53.784;10.440;2022-10-17T15:27:06;17.30;99.90
7155;DHT22;3619;53.784;10.440;2022-10-17T15:29:36;17.30;99.90
7155;DHT22;3619;53.784;10.440;2022-10-17T15:32:04;17.30;99.90
7155;DHT22;3619;53.784;10.440;2022-10-17T15:34:31;17.30;99.90
7155;DHT22;3619;53.784;10.440;2022-10-17T15:36:58;17.30;99.90
7155;DHT22;3619;53.784;10.440;2022-10-17T15:39:25;17.30;99.90
7155;DHT22;3619;53.784;10.440;2022-10-17T15:41:51;17.30;99.90
7155;DHT22;3619;53.784;10.440;2022-10-17T15:44:18;17.20;99.90
7155;DHT22;3619;53.784;10.440;2022-10-17T15:46:45;17.30;99.90
7155;DHT22;3619;53.784;10.440;2022-10-17T15:49:15;17.20;99.90
7155;DHT22;3619;53.784;10.440;2022-10-17T15:51:45;17.30;99.90
7155;DHT22;3619;53.784;10.440;2022-10-17T15:54:11;17.20;99.90
7155;DHT22;3619;53.784;10.440;2022-10-17T15:56:40;17.20;99.90
7155;DHT22;3619;53.784;10.440;2022-10-17T15:59:11;17.20;99.90
7155;DHT22;3619;53.784;10.440;2022-10-17T16:01:39;17.20;99.90
7155;DHT22;3619;53.784;10.440;2022-10-17T16:04:09;17.20;99.90
7155;DHT22;3619;53.784;10.440;2022-10-17T16:06:38;17.20;99.90
7155;DHT22;3619;53.784;10.440;2022-10-17T16:09:05;17.20;99.90
7155;DHT22;3619;53.784;10.440;2022-10-17T16:11:34;17.20;99.90
7155;DHT22;3619;53.784;10.440;2022-10-17T16:14:04;17.20;99.90
7155;DHT22;3619;53.784;10.440;2022-10-17T16:16:32;17.20;99.90
7155;DHT22;3619;53.784;10.440;2022-10-17T16:18:58;17.20;99.90
7155;DHT22;3619;53.784;10.440;2022-10-17T16:21:28;17.10;99.90
7155;DHT22;3619;53.784;10.440;2022-10-17T16:23:57;17.10;99.90